Time;durP1;ratioP1;P1;durP2;ratioP2;P2;SDS_P1;SDS_P2;PMS_P1;PMS_P2;Temp;Humidity;BMP_temperature;BMP_pressure;BME280_temperature;BME280_humidity;BME280_pressure;Samples;Min_cycle;Max_cycle;Signal;HPM_P1;HPM_P2
2022/09/12 00:00:36;;;;;;;6.78;5.13;;;15.00;99.90;;;;;;5010225;28;20071;-75
2022/09/12 00:03:02;;;;;;;6.63;5.18;;;15.00;99.90;;;;;;5028172;28;20052;-75
2022/09/12 00:05:27;;;;;;;7.95;5.72;;;14.90;99.90;;;;;;5029530;28;20658;-77
2022/09/12 00:07:53;;;;;;;9.00;5.43;;;14.90;99.90;;;;;;5047329;28;20370;-76
2022/09/12 00:10:19;;;;;;;7.95;5.32;;;14.90;99.90;;;;;;5018646;28;20073;-76
2022/09/12 00:12:45;;;;;;;10.10;5.72;;;14.90;99.90;;;;;;5011850;28;20032;-77
2022/09/12 00:15:11;;;;;;;11.07;5.55;;;14.90;99.90;;;;;;5015806;28;20033;-77
2022/09/12 00:17:37;;;;;;;10.05;5.55;;;14.80;99.90;;;;;;4994598;28;20474;-77
2022/09/12 00:20:06;;;;;;;7.80;5.25;;;14.80;99.90;;;;;;5031271;28;20029;-76
2022/09/12 00:22:32;;;;;;;9.35;5.50;;;14.80;99.90;;;;;;5026063;28;20037;-76
2022/09/12 00:24:57;;;;;;;7.50;5.07;;;14.80;99.90;;;;;;5017757;28;20028;-76
2022/09/12 00:27:23;;;;;;;6.78;5.05;;;14.80;99.90;;;;;;5027394;28;20078;-77
2022/09/12 00:29:49;;;;;;;6.50;5.15;;;14.80;99.90;;;;;;5028370;28;20069;-76
2022/09/12 00:32:15;;;;;;;7.50;5.18;;;14.80;99.90;;;;;;5006993;28;20044;-77
2022/09/12 00:34:41;;;;;;;8.55;5.68;;;14.80;99.90;;;;;;5029524;28;21698;-77
2022/09/12 00:37:06;;;;;;;8.80;5.07;;;14.80;99.90;;;;;;5012366;28;20112;-77
2022/09/12 00:39:32;;;;;;;8.25;4.68;;;14.70;99.90;;;;;;5015226;28;20030;-76
2022/09/12 00:41:58;;;;;;;7.55;4.75;;;14.70;99.90;;;;;;5010936;28;20103;-77
2022/09/12 00:44:23;;;;;;;6.93;5.15;;;14.70;99.90;;;;;;4995876;28;20117;-76
2022/09/12 00:46:59;;;;;;;5.68;4.45;;;14.70;99.90;;;;;;5008486;28;20030;-77
2022/09/12 00:49:37;;;;;;;9.15;5.22;;;14.70;99.90;;;;;;5030304;28;20025;-76
2022/09/12 00:52:19;;;;;;;7.07;4.95;;;14.70;99.90;;;;;;5032889;28;20030;-76
2022/09/12 00:54:57;;;;;;;6.35;5.30;;;14.60;99.90;;;;;;5007753;28;20124;-77
2022/09/12 00:57:28;;;;;;;9.93;5.15;;;14.60;99.90;;;;;;5033271;28;20044;-77
2022/09/12 01:00:17;;;;;;;5.63;4.63;;;14.60;99.90;;;;;;5012644;28;20029;-77
2022/09/12 01:02:49;;;;;;;8.80;5.60;;;14.60;99.90;;;;;;5030365;28;20109;-77
2022/09/12 01:05:16;;;;;;;8.05;5.13;;;14.60;99.90;;;;;;5031959;28;20091;-77
2022/09/12 01:07:43;;;;;;;7.50;5.30;;;14.60;99.90;;;;;;5014146;28;20033;-77
2022/09/12 01:10:10;;;;;;;8.45;4.82;;;14.50;99.90;;;;;;4994204;28;20053;-77
2022/09/12 01:12:39;;;;;;;6.60;5.07;;;14.50;99.90;;;;;;5003434;28;20037;-76
2022/09/12 01:15:05;;;;;;;5.38;4.50;;;14.50;99.90;;;;;;5027909;28;20472;-77
2022/09/12 01:18:00;;;;;;;7.32;5.25;;;14.50;99.90;;;;;;5016435;28;20025;-77
2022/09/12 01:20:40;;;;;;;6.65;5.03;;;14.50;99.90;;;;;;5006232;28;20042;-77
2022/09/12 01:23:15;;;;;;;7.85;5.55;;;14.50;99.90;;;;;;4994004;28;20112;-77
2022/09/12 01:26:22;;;;;;;7.80;5.32;;;14.40;99.90;;;;;;5034652;28;20024;-77
2022/09/12 01:28:51;;;;;;;5.90;4.75;;;14.40;99.90;;;;;;5031775;28;20053;-76
2022/09/12 01:31:33;;;;;;;7.50;5.30;;;14.40;99.90;;;;;;5023959;28;20488;-76
2022/09/12 01:34:12;;;;;;;7.82;5.47;;;14.40;99.90;;;;;;5028044;28;20490;-76
2022/09/12 01:36:58;;;;;;;7.95;5.75;;;14.40;99.90;;;;;;5013313;28;20512;-76
2022/09/12 01:39:34;;;;;;;8.60;5.57;;;14.40;99.90;;;;;;5026892;28;20497;-76
2022/09/12 01:42:30;;;;;;;9.85;5.80;;;14.40;99.90;;;;;;5011336;28;20025;-76
2022/09/12 01:45:07;;;;;;;8.07;5.53;;;14.40;99.90;;;;;;5024407;28;20033;-76
2022/09/12 01:47:40;;;;;;;7.28;5.55;;;14.30;99.90;;;;;;5025711;28;20033;-76
2022/09/12 01:50:29;;;;;;;7.20;5.43;;;14.30;99.90;;;;;;4997516;28;20034;-76
2022/09/12 01:53:11;;;;;;;7.93;5.20;;;14.30;99.90;;;;;;5007460;28;20061;-76
2022/09/12 01:55:45;;;;;;;7.55;5.20;;;14.30;99.90;;;;;;5011406;28;20108;-76
2022/09/12 01:58:16;;;;;;;8.18;5.53;;;14.30;99.90;;;;;;5022871;28;20563;-76
2022/09/12 02:01:01;;;;;;;8.02;5.35;;;14.30;99.90;;;;;;5003590;28;20076;-76
2022/09/12 02:03:31;;;;;;;8.98;5.63;;;14.20;99.90;;;;;;5021970;28;20026;-76
2022/09/12 02:06:11;;;;;;;9.30;5.43;;;14.20;99.90;;;;;;5012809;28;20048;-76
2022/09/12 02:08:46;;;;;;;8.05;5.60;;;14.20;99.90;;;;;;5008866;28;20029;-76
2022/09/12 02:11:12;;;;;;;6.68;4.80;;;14.20;99.90;;;;;;5030862;28;20036;-76
2022/09/12 02:13:47;;;;;;;8.30;5.40;;;14.20;99.90;;;;;;5010952;28;20038;-76
2022/09/12 02:16:17;;;;;;;6.85;5.35;;;14.20;99.90;;;;;;4997983;28;20057;-76
2022/09/12 02:18:51;;;;;;;7.10;5.25;;;14.20;99.90;;;;;;5013933;28;20055;-76
2022/09/12 02:21:18;;;;;;;7.32;5.82;;;14.20;99.90;;;;;;5031636;28;20014;-76
2022/09/12 02:23:49;;;;;;;7.38;4.95;;;14.20;99.90;;;;;;5028039;28;20036;-76
2022/09/12 02:26:24;;;;;;;8.00;5.47;;;14.20;99.90;;;;;;5005016;28;20021;-76
2022/09/12 02:28:50;;;;;;;9.35;5.43;;;14.10;99.90;;;;;;5027273;28;20100;-76
2022/09/12 02:31:36;;;;;;;8.15;5.28;;;14.10;99.90;;;;;;4995126;28;20390;-76
2022/09/12 02:34:27;;;;;;;9.32;5.05;;;14.10;99.90;;;;;;4988433;28;20018;-77
2022/09/12 02:36:56;;;;;;;;;;;14.10;99.90;;;;;;5026273;28;20037;-76
2022/09/12 02:39:21;;;;;;;6.63;5.32;;;14.00;99.90;;;;;;5012191;28;19917;-76
2022/09/12 02:41:50;;;;;;;8.48;5.43;;;14.10;99.90;;;;;;5026295;28;20030;-77
2022/09/12 02:44:17;;;;;;;11.63;5.20;;;14.00;99.90;;;;;;5010740;28;20044;-76
2022/09/12 02:46:48;;;;;;;7.07;5.57;;;14.00;99.90;;;;;;5011920;28;20091;-76
2022/09/12 02:49:16;;;;;;;6.53;4.63;;;14.00;99.90;;;;;;5013990;28;20037;-76
2022/09/12 02:51:42;;;;;;;6.57;4.90;;;14.00;99.90;;;;;;5021896;28;20029;-75
2022/09/12 02:54:09;;;;;;;9.02;4.95;;;14.00;99.90;;;;;;5003530;28;20056;-76
2022/09/12 02:56:35;;;;;;;7.15;4.97;;;14.00;99.90;;;;;;5026487;28;20041;-76
2022/09/12 02:59:07;;;;;;;6.03;4.68;;;14.00;99.90;;;;;;5025403;28;20099;-76
2022/09/12 03:01:57;;;;;;;6.13;4.20;;;14.00;99.90;;;;;;4994586;28;20034;-76
2022/09/12 03:04:38;;;;;;;7.78;4.80;;;13.90;99.90;;;;;;5023720;28;20038;-77
2022/09/12 03:07:41;;;;;;;6.82;4.80;;;13.90;99.90;;;;;;5033692;28;20032;-75
2022/09/12 03:10:28;;;;;;;6.93;4.68;;;13.90;99.90;;;;;;5031461;28;20517;-76
2022/09/12 03:13:19;;;;;;;7.15;4.60;;;13.90;99.90;;;;;;5026568;28;20361;-76
2022/09/12 03:16:08;;;;;;;8.47;4.80;;;13.90;99.90;;;;;;5027574;28;20041;-76
2022/09/12 03:18:54;;;;;;;5.97;4.13;;;13.90;99.90;;;;;;5028757;28;20112;-76
2022/09/12 03:21:44;;;;;;;9.18;4.70;;;13.90;99.90;;;;;;4994186;28;20033;-76
2022/09/12 03:24:33;;;;;;;5.82;4.70;;;13.90;99.90;;;;;;5021469;28;20021;-76
2022/09/12 03:27:08;;;;;;;8.77;5.38;;;13.90;99.90;;;;;;5009233;28;20026;-77
2022/09/12 03:29:37;;;;;;;7.18;4.60;;;13.80;99.90;;;;;;5016263;28;20061;-76
2022/09/12 03:32:06;;;;;;;6.25;5.20;;;13.80;99.90;;;;;;5010907;28;20042;-76
2022/09/12 03:34:32;;;;;;;8.32;5.45;;;13.90;99.90;;;;;;5010589;28;20045;-77
2022/09/12 03:36:58;;;;;;;8.02;5.03;;;13.80;99.90;;;;;;4998221;28;20033;-76
2022/09/12 03:39:25;;;;;;;10.15;5.47;;;13.80;99.90;;;;;;5013561;28;20095;-76
2022/09/12 03:41:52;;;;;;;5.53;4.72;;;13.80;99.90;;;;;;4994442;28;20440;-76
2022/09/12 03:44:18;;;;;;;7.18;5.20;;;13.80;99.90;;;;;;5029475;28;20037;-76
2022/09/12 03:46:44;;;;;;;7.18;5.30;;;13.80;99.90;;;;;;5015195;28;20025;-76
2022/09/12 03:49:11;;;;;;;8.23;4.85;;;13.70;99.90;;;;;;5019133;28;20056;-76
2022/09/12 03:51:37;;;;;;;6.32;5.00;;;13.80;99.90;;;;;;5030109;28;20481;-76
2022/09/12 03:54:03;;;;;;;7.55;5.18;;;13.70;99.90;;;;;;5013806;28;20112;-76
2022/09/12 03:56:29;;;;;;;8.18;5.15;;;13.70;99.90;;;;;;5017730;28;20126;-76
2022/09/12 03:58:55;;;;;;;9.88;5.03;;;13.80;99.90;;;;;;5027886;28;20387;-76
2022/09/12 04:01:20;;;;;;;6.60;4.80;;;13.80;99.90;;;;;;5032078;28;20025;-76
2022/09/12 04:03:51;;;;;;;8.20;5.72;;;13.70;99.90;;;;;;5028207;28;20025;-77
2022/09/12 04:06:19;;;;;;;7.17;4.80;;;13.70;99.90;;;;;;5022634;28;20052;-76
2022/09/12 04:08:51;;;;;;;7.82;5.32;;;13.70;99.90;;;;;;4995276;28;20120;-77
2022/09/12 04:11:19;;;;;;;10.38;5.47;;;13.70;99.90;;;;;;5013303;28;20037;-76
2022/09/12 04:13:45;;;;;;;7.18;5.10;;;13.70;99.90;;;;;;5024914;28;20028;-76
2022/09/12 04:16:12;;;;;;;7.57;5.15;;;13.70;99.90;;;;;;5000338;28;20037;-76
2022/09/12 04:18:38;;;;;;;6.47;5.25;;;13.70;99.90;;;;;;4992716;28;20037;-76
2022/09/12 04:21:06;;;;;;;7.15;5.50;;;13.70;99.90;;;;;;5032783;28;20111;-76
2022/09/12 04:23:31;;;;;;;8.02;5.25;;;13.70;99.90;;;;;;4997638;28;20039;-77
2022/09/12 04:25:59;;;;;;;9.55;4.97;;;13.70;99.90;;;;;;5029526;28;20029;-77
2022/09/12 04:28:27;;;;;;;8.95;6.05;;;13.70;99.90;;;;;;5011444;28;20076;-76
2022/09/12 04:30:54;;;;;;;8.75;5.55;;;13.60;99.90;;;;;;5025460;28;20025;-76
2022/09/12 04:33:20;;;;;;;9.18;6.50;;;13.60;99.90;;;;;;5030515;28;20029;-77
2022/09/12 04:35:46;;;;;;;8.88;6.40;;;13.60;99.90;;;;;;5031430;28;20028;-77
2022/09/12 04:38:12;;;;;;;7.95;6.15;;;13.60;99.90;;;;;;5010621;28;20033;-77
2022/09/12 04:40:37;;;;;;;8.75;5.85;;;13.60;99.90;;;;;;5011659;28;20088;-77
2022/09/12 04:43:05;;;;;;;9.50;6.70;;;13.60;99.90;;;;;;5029160;28;20021;-77
2022/09/12 04:45:32;;;;;;;9.02;6.28;;;13.60;99.90;;;;;;5014429;28;20039;-76
2022/09/12 04:47:58;;;;;;;9.10;6.70;;;13.70;99.90;;;;;;5012705;28;20034;-77
2022/09/12 04:50:24;;;;;;;8.27;6.40;;;13.60;99.90;;;;;;5006487;28;20032;-76
2022/09/12 04:52:51;;;;;;;8.60;6.63;;;13.60;99.90;;;;;;5031044;28;20033;-76
2022/09/12 04:55:19;;;;;;;11.63;7.88;;;13.60;99.90;;;;;;5009389;28;20033;-77
2022/09/12 04:57:45;;;;;;;13.35;8.68;;;13.60;99.90;;;;;;5017055;28;20108;-76
2022/09/12 05:00:12;;;;;;;10.93;7.97;;;13.60;99.90;;;;;;5026562;28;20771;-75
2022/09/12 05:02:38;;;;;;;15.20;9.50;;;13.60;99.90;;;;;;5006211;28;20029;-77
2022/09/12 05:05:04;;;;;;;12.18;9.05;;;13.60;99.90;;;;;;5027095;28;20021;-77
2022/09/12 05:07:30;;;;;;;13.55;9.38;;;13.60;99.90;;;;;;5029344;28;20048;-74
2022/09/12 05:09:57;;;;;;;16.33;10.73;;;13.60;99.90;;;;;;4994825;28;20029;-73
2022/09/12 05:12:26;;;;;;;15.23;10.07;;;13.60;99.90;;;;;;4990788;28;20120;-74
2022/09/12 05:14:51;;;;;;;13.80;10.48;;;13.60;99.90;;;;;;5004720;28;20512;-77
2022/09/12 05:17:17;;;;;;;13.73;10.60;;;13.50;99.90;;;;;;5030903;28;20025;-77
2022/09/12 05:19:43;;;;;;;15.25;10.05;;;13.60;99.90;;;;;;5025921;28;20083;-77
2022/09/12 05:22:09;;;;;;;16.58;11.45;;;13.60;99.90;;;;;;5026351;28;20113;-76
2022/09/12 05:24:36;;;;;;;15.20;11.32;;;13.60;99.90;;;;;;5012743;28;20033;-77
2022/09/12 05:27:03;;;;;;;13.95;10.25;;;13.60;99.90;;;;;;5009262;28;20168;-77
2022/09/12 05:29:29;;;;;;;16.33;10.75;;;13.70;99.90;;;;;;5012006;28;20100;-77
2022/09/12 05:31:55;;;;;;;14.45;11.13;;;13.70;99.90;;;;;;5025383;28;20029;-78
2022/09/12 05:34:21;;;;;;;14.50;10.38;;;13.70;99.90;;;;;;5010687;28;20128;-77
2022/09/12 05:36:47;;;;;;;13.25;10.50;;;13.70;99.90;;;;;;5012683;28;20040;-77
2022/09/12 05:39:12;;;;;;;13.65;10.70;;;13.80;99.90;;;;;;4995170;28;20413;-77
2022/09/12 05:41:38;;;;;;;14.27;10.50;;;13.80;99.90;;;;;;5031336;28;20017;-78
2022/09/12 05:44:09;;;;;;;15.30;11.20;;;13.80;99.90;;;;;;5011096;28;20023;-76
2022/09/12 05:46:37;;;;;;;;;;;13.80;99.90;;;;;;4990908;28;20029;-77
2022/09/12 05:49:05;;;;;;;15.15;12.10;;;13.80;99.90;;;;;;5026842;28;19962;-77
2022/09/12 05:51:37;;;;;;;15.35;11.55;;;13.90;99.90;;;;;;4987704;28;20040;-74
2022/09/12 05:54:05;;;;;;;15.82;11.40;;;13.90;99.90;;;;;;5024162;28;20025;-75
2022/09/12 05:56:33;;;;;;;17.05;10.93;;;13.90;99.90;;;;;;5011630;28;20033;-73
2022/09/12 05:59:19;;;;;;;16.65;12.00;;;14.00;99.90;;;;;;5011811;28;20064;-73
2022/09/12 06:01:45;;;;;;;15.32;10.80;;;14.00;99.90;;;;;;5026326;28;20040;-74
2022/09/12 06:04:11;;;;;;;17.58;12.02;;;14.10;99.90;;;;;;5007944;28;20021;-73
2022/09/12 06:06:43;;;;;;;16.85;12.68;;;14.10;99.90;;;;;;5006843;28;20405;-73
2022/09/12 06:09:10;;;;;;;18.10;12.82;;;14.10;99.90;;;;;;4988670;28;20041;-73
2022/09/12 06:11:39;;;;;;;31.05;13.00;;;14.10;99.90;;;;;;4990133;28;20489;-73
2022/09/12 06:14:05;;;;;;;15.13;11.88;;;14.20;99.90;;;;;;5007411;28;20163;-73
2022/09/12 06:16:33;;;;;;;14.25;10.77;;;14.30;99.90;;;;;;5025018;28;20108;-73
2022/09/12 06:19:02;;;;;;;17.70;11.55;;;14.30;99.90;;;;;;5023384;28;20060;-74
2022/09/12 06:21:33;;;;;;;18.90;12.63;;;14.40;99.90;;;;;;5010028;28;20033;-77
2022/09/12 06:23:58;;;;;;;15.35;11.38;;;14.40;99.90;;;;;;5007396;28;20028;-72
2022/09/12 06:26:25;;;;;;;14.48;11.65;;;14.40;99.90;;;;;;5010749;28;20108;-74
2022/09/12 06:28:53;;;;;;;13.57;10.15;;;14.40;99.90;;;;;;5027001;28;20022;-73
2022/09/12 06:31:25;;;;;;;7.60;6.35;;;14.40;99.90;;;;;;5018397;28;20026;-73
2022/09/12 06:33:52;;;;;;;14.05;9.52;;;14.80;99.90;;;;;;5027635;28;20032;-75
2022/09/12 06:36:23;;;;;;;11.88;10.02;;;15.00;99.90;;;;;;4991556;28;20060;-73
2022/09/12 06:38:55;;;;;;;11.45;8.85;;;14.80;99.90;;;;;;5029923;28;20108;-75
2022/09/12 06:41:22;;;;;;;10.68;9.57;;;14.70;99.90;;;;;;5018922;28;20037;-75
2022/09/12 06:43:49;;;;;;;11.02;9.07;;;14.70;99.90;;;;;;5011211;28;20108;-75
2022/09/12 06:46:14;;;;;;;10.43;9.10;;;14.70;99.90;;;;;;5006015;28;20544;-73
2022/09/12 06:48:41;;;;;;;15.57;10.23;;;14.70;99.90;;;;;;5024417;28;20040;-74
2022/09/12 06:51:14;;;;;;;10.73;8.77;;;14.70;99.90;;;;;;4999515;28;20758;-74
2022/09/12 06:53:41;;;;;;;10.93;8.70;;;14.70;99.90;;;;;;5010257;28;20025;-76
2022/09/12 06:56:18;;;;;;;10.13;8.40;;;14.80;99.90;;;;;;5014048;28;20060;-77
2022/09/12 06:58:44;;;;;;;10.60;7.82;;;14.90;99.90;;;;;;4996852;28;20044;-77
2022/09/12 07:01:14;;;;;;;10.23;9.13;;;14.90;99.90;;;;;;5010095;28;20517;-77
2022/09/12 07:03:41;;;;;;;10.43;8.50;;;14.90;99.90;;;;;;5012433;28;20160;-76
2022/09/12 07:06:13;;;;;;;12.85;8.05;;;14.90;99.90;;;;;;5010246;28;20037;-77
2022/09/12 07:08:42;;;;;;;9.15;8.15;;;14.90;99.90;;;;;;4995670;28;20408;-77
2022/09/12 07:11:20;;;;;;;10.93;7.50;;;15.00;99.90;;;;;;5013604;28;20378;-77
2022/09/12 07:13:48;;;;;;;9.45;7.90;;;15.00;99.90;;;;;;5015879;28;20025;-77
2022/09/12 07:16:14;;;;;;;8.32;7.53;;;15.00;99.90;;;;;;5029872;28;20087;-77
2022/09/12 07:18:40;;;;;;;8.60;7.60;;;15.00;99.90;;;;;;5013080;28;20427;-77
2022/09/12 07:21:11;;;;;;;8.75;7.47;;;15.10;99.90;;;;;;5012881;28;20025;-77
2022/09/12 07:23:38;;;;;;;8.30;7.50;;;15.20;99.90;;;;;;4995028;28;20037;-76
2022/09/12 07:26:05;;;;;;;8.88;7.45;;;15.20;99.90;;;;;;5026804;28;20025;-77
2022/09/12 07:28:32;;;;;;;8.63;7.10;;;15.20;99.90;;;;;;4993645;28;20064;-77
2022/09/12 07:31:08;;;;;;;7.82;7.03;;;15.30;99.90;;;;;;5010853;28;20039;-77
2022/09/12 07:33:34;;;;;;;10.15;7.35;;;15.30;99.90;;;;;;5028343;28;20060;-79
2022/09/12 07:36:05;;;;;;;8.73;6.75;;;15.30;99.90;;;;;;5018982;28;20036;-77
2022/09/12 07:38:31;;;;;;;7.85;5.72;;;15.30;99.90;;;;;;5036248;28;20235;-77
2022/09/12 07:40:57;;;;;;;8.05;6.88;;;15.40;99.90;;;;;;5013554;28;20053;-77
2022/09/12 07:43:23;;;;;;;9.70;7.18;;;15.40;99.90;;;;;;5036141;28;20036;-77
2022/09/12 07:45:54;;;;;;;10.25;7.28;;;15.50;99.90;;;;;;5013696;28;20030;-77
2022/09/12 07:48:20;;;;;;;8.20;6.38;;;15.50;99.90;;;;;;5013876;28;20030;-77
2022/09/12 07:50:46;;;;;;;8.55;7.65;;;15.50;99.90;;;;;;5032536;28;20033;-77
2022/09/12 07:53:11;;;;;;;10.15;7.05;;;15.60;99.90;;;;;;5000696;28;20178;-77
2022/09/12 07:55:38;;;;;;;6.93;6.20;;;15.60;99.90;;;;;;5015011;28;20120;-78
2022/09/12 07:58:04;;;;;;;10.05;7.10;;;15.70;99.90;;;;;;4996255;28;20029;-78
2022/09/12 08:00:34;;;;;;;11.63;8.05;;;15.80;99.90;;;;;;5013752;28;20040;-77
2022/09/12 08:03:01;;;;;;;11.60;7.78;;;15.90;99.90;;;;;;5028785;28;20029;-77
2022/09/12 08:05:28;;;;;;;10.48;8.23;;;15.90;99.90;;;;;;5032201;28;20029;-77
2022/09/12 08:07:54;;;;;;;11.52;7.38;;;16.00;99.90;;;;;;5013404;28;20167;-77
2022/09/12 08:10:20;;;;;;;11.68;7.75;;;16.10;99.90;;;;;;5033186;28;20037;-77
2022/09/12 08:12:45;;;;;;;10.30;7.10;;;16.20;99.90;;;;;;5031283;28;20407;-77
2022/09/12 08:15:11;;;;;;;9.48;7.60;;;16.30;99.90;;;;;;4998268;28;20148;-77
2022/09/12 08:17:37;;;;;;;9.25;7.22;;;16.30;99.90;;;;;;5018690;28;20564;-78
2022/09/12 08:20:03;;;;;;;8.95;7.30;;;16.40;99.90;;;;;;5036970;28;20086;-78
2022/09/12 08:22:30;;;;;;;9.70;6.65;;;16.50;99.90;;;;;;5014382;28;20363;-77
2022/09/12 08:24:56;;;;;;;6.90;5.80;;;16.60;99.90;;;;;;4997839;28;20444;-77
2022/09/12 08:27:21;;;;;;;7.32;5.75;;;16.70;99.90;;;;;;5031803;28;20033;-77
2022/09/12 08:29:47;;;;;;;6.25;5.45;;;16.70;99.90;;;;;;5019318;28;20048;-78
2022/09/12 08:32:13;;;;;;;9.40;5.35;;;16.80;99.90;;;;;;5013875;28;20029;-77
2022/09/12 08:34:38;;;;;;;6.28;5.22;;;16.80;99.90;;;;;;5012740;28;20108;-77
2022/09/12 08:37:04;;;;;;;5.80;4.30;;;16.90;99.90;;;;;;5032553;28;20310;-77
2022/09/12 08:39:31;;;;;;;3.97;3.58;;;17.00;99.90;;;;;;5014441;28;20085;-77
2022/09/12 08:42:00;;;;;;;6.22;4.18;;;17.00;99.90;;;;;;5031035;28;20017;-77
2022/09/12 08:44:41;;;;;;;6.88;4.30;;;17.10;99.90;;;;;;5013302;28;20087;-77
2022/09/12 08:47:13;;;;;;;6.53;4.10;;;17.20;99.90;;;;;;5013540;28;20140;-77
2022/09/12 08:49:50;;;;;;;7.07;5.07;;;17.20;99.90;;;;;;5008545;28;20133;-77
2022/09/12 08:52:38;;;;;;;5.72;3.75;;;17.30;99.90;;;;;;5032313;28;20025;-78
2022/09/12 08:55:10;;;;;;;5.72;4.65;;;17.40;99.90;;;;;;4997204;28;20132;-77
2022/09/12 08:57:36;;;;;;;4.65;3.50;;;17.50;99.90;;;;;;5035732;28;20021;-77
2022/09/12 09:00:05;;;;;;;8.65;4.53;;;17.50;99.90;;;;;;5016891;28;20104;-77
2022/09/12 09:02:55;;;;;;;6.93;4.97;;;17.60;99.90;;;;;;5027431;28;20453;-77
2022/09/12 09:05:44;;;;;;;9.98;6.03;;;17.60;99.90;;;;;;5009938;28;20025;-77
2022/09/12 09:08:21;;;;;;;4.97;4.32;;;17.70;99.90;;;;;;5012819;28;20041;-77
2022/09/12 09:11:21;;;;;;;6.05;4.28;;;17.80;99.90;;;;;;5033160;28;20413;-79
2022/09/12 09:16:55;;;;;;;5.78;3.60;;;18.00;99.90;;;;;;5025051;28;20087;-77
2022/09/12 09:19:36;;;;;;;4.03;3.58;;;18.10;99.90;;;;;;5027607;28;20039;-77
2022/09/12 09:22:34;;;;;;;7.60;4.97;;;18.20;99.90;;;;;;5013701;28;20045;-77
2022/09/12 09:25:09;;;;;;;5.35;3.53;;;18.20;99.90;;;;;;5006732;28;20378;-77
2022/09/12 09:27:45;;;;;;;4.53;3.47;;;18.30;99.90;;;;;;5014178;28;20108;-78
2022/09/12 09:30:20;;;;;;;3.70;2.95;;;18.40;99.90;;;;;;5015639;28;20034;-79
2022/09/12 09:32:59;;;;;;;4.97;3.55;;;18.50;99.90;;;;;;5035654;28;20026;-77
2022/09/12 09:35:37;;;;;;;4.38;3.10;;;18.50;99.90;;;;;;5034713;28;20037;-78
2022/09/12 09:38:23;;;;;;;2.75;2.45;;;18.60;99.90;;;;;;5002689;28;20037;-77
2022/09/12 09:41:23;;;;;;;3.67;2.58;;;18.70;99.90;;;;;;5012505;28;20029;-78
2022/09/12 09:43:49;;;;;;;5.68;2.83;;;18.80;99.90;;;;;;5030894;28;20025;-78
2022/09/12 09:46:15;;;;;;;3.92;2.67;;;18.80;99.90;;;;;;5017004;28;20033;-78
2022/09/12 09:48:47;;;;;;;4.95;3.28;;;18.90;99.90;;;;;;4998080;28;20030;-77
2022/09/12 09:51:21;;;;;;;4.45;3.33;;;18.90;99.90;;;;;;4997992;28;20025;-78
2022/09/12 09:54:09;;;;;;;4.45;2.92;;;19.00;99.90;;;;;;5030366;28;20066;-78
2022/09/12 09:56:41;;;;;;;4.78;2.85;;;19.00;99.90;;;;;;5017989;28;20029;-78
2022/09/12 09:59:26;;;;;;;5.88;2.90;;;19.10;99.90;;;;;;5014049;28;20116;-77
2022/09/12 10:02:19;;;;;;;4.55;2.80;;;19.10;99.90;;;;;;5015141;28;20040;-77
2022/09/12 10:04:58;;;;;;;4.85;2.50;;;19.10;99.90;;;;;;5015699;28;20070;-77
2022/09/12 10:07:25;;;;;;;4.88;2.63;;;19.30;99.90;;;;;;5015261;28;20032;-77
2022/09/12 10:10:15;;;;;;;3.40;2.60;;;19.30;99.90;;;;;;5021648;28;20186;-78
2022/09/12 10:12:42;;;;;;;3.75;2.50;;;19.40;99.90;;;;;;5019237;28;20036;-77
2022/09/12 10:15:20;;;;;;;3.80;2.90;;;19.40;99.90;;;;;;5010789;28;20484;-78
2022/09/12 10:17:51;;;;;;;3.70;2.83;;;19.50;99.90;;;;;;5050351;28;20028;-76
2022/09/12 10:20:31;;;;;;;6.63;3.78;;;19.50;99.90;;;;;;5033792;28;20030;-77
2022/09/12 10:23:21;;;;;;;10.38;6.35;;;19.50;99.90;;;;;;5032277;28;20025;-75
2022/09/12 10:25:53;;;;;;;4.72;2.83;;;19.50;99.90;;;;;;5026006;28;20029;-75
2022/09/12 10:28:30;;;;;;;4.22;2.72;;;19.60;99.90;;;;;;5011354;28;20026;-76
2022/09/12 10:30:56;;;;;;;3.15;2.28;;;19.70;99.90;;;;;;5012029;28;20090;-76
2022/09/12 10:33:24;;;;;;;3.50;2.40;;;19.80;99.90;;;;;;5028167;28;20025;-75
2022/09/12 10:35:52;;;;;;;3.55;2.00;;;19.80;99.90;;;;;;5024955;28;20029;-75
2022/09/12 10:38:27;;;;;;;2.88;1.52;;;19.80;99.90;;;;;;5029149;28;20098;-74
2022/09/12 10:41:11;;;;;;;2.42;1.80;;;19.90;99.90;;;;;;5009619;28;20060;-75
2022/09/12 10:43:38;;;;;;;4.75;2.25;;;20.00;99.90;;;;;;5029265;28;20100;-76
2022/09/12 10:46:13;;;;;;;2.78;1.95;;;20.10;99.90;;;;;;5032788;28;20026;-74
2022/09/12 10:48:39;;;;;;;2.35;1.52;;;20.20;99.90;;;;;;5028080;28;20026;-75
2022/09/12 10:51:13;;;;;;;2.13;1.60;;;20.30;99.90;;;;;;5036351;28;20032;-76
2022/09/12 10:53:42;;;;;;;3.58;1.63;;;20.40;99.90;;;;;;5046514;28;20489;-77
2022/09/12 10:56:08;;;;;;;2.55;1.65;;;20.60;99.90;;;;;;5046536;28;20031;-76
2022/09/12 10:59:10;;;;;;;2.10;1.40;;;20.60;99.90;;;;;;5013298;28;20069;-74
2022/09/12 11:01:44;;;;;;;4.13;1.85;;;20.80;99.90;;;;;;5027352;28;20021;-73
2022/09/12 11:04:43;;;;;;;1.65;1.38;;;21.00;99.90;;;;;;5028772;28;20436;-76
2022/09/12 11:07:38;;;;;;;37.95;21.20;;;21.30;99.90;;;;;;5009181;28;20029;-77
2022/09/12 11:10:39;;;;;;;6.95;5.20;;;21.60;99.90;;;;;;5027866;28;20043;-84
2022/09/12 11:13:29;;;;;;;3.50;1.40;;;21.80;99.90;;;;;;4999810;28;20077;-76
2022/09/12 11:16:23;;;;;;;2.93;1.43;;;21.90;99.90;;;;;;5028572;28;20041;-77
2022/09/12 11:18:52;;;;;;;2.40;1.80;;;21.90;99.90;;;;;;5030999;28;20294;-78
2022/09/12 11:21:55;;;;;;;1.27;1.10;;;22.00;99.90;;;;;;5018880;28;20040;-78
2022/09/12 11:24:26;;;;;;;2.60;1.10;;;22.00;99.90;;;;;;5039292;28;20053;-77
2022/09/12 11:26:59;;;;;;;1.45;1.00;;;22.00;99.90;;;;;;5013826;28;20064;-78
2022/09/12 11:29:47;;;;;;;1.88;1.60;;;22.00;99.90;;;;;;5030408;28;20025;-77
2022/09/12 11:32:37;;;;;;;4.05;2.13;;;22.00;99.90;;;;;;5022830;28;20528;-78
2022/09/12 11:35:24;;;;;;;2.92;1.55;;;22.00;99.90;;;;;;5030844;28;20095;-78
2022/09/12 11:38:43;;;;;;;2.45;1.80;;;22.00;99.90;;;;;;5014072;28;20033;-77
2022/09/12 11:41:19;;;;;;;2.40;1.77;;;22.00;99.90;;;;;;4978958;28;20529;-77
2022/09/12 11:44:01;;;;;;;1.40;1.25;;;22.10;99.90;;;;;;5004666;28;20116;-77
2022/09/12 11:46:26;;;;;;;3.22;1.60;;;22.20;99.90;;;;;;5019446;28;20029;-78
2022/09/12 11:49:14;;;;;;;2.50;1.30;;;22.10;99.90;;;;;;5023859;28;20025;-75
2022/09/12 11:51:48;;;;;;;2.03;1.58;;;22.00;99.90;;;;;;5041000;28;20029;-76
2022/09/12 11:54:37;;;;;;;1.67;1.40;;;21.90;99.90;;;;;;5039823;28;20026;-78
2022/09/12 11:57:20;;;;;;;2.45;1.40;;;21.90;99.90;;;;;;5015750;28;20057;-78
2022/09/12 12:00:19;;;;;;;1.75;1.55;;;21.90;99.90;;;;;;5017373;28;20385;-77
2022/09/12 12:03:13;;;;;;;2.60;1.70;;;21.90;99.90;;;;;;5032588;28;20040;-78
2022/09/12 12:05:59;;;;;;;2.70;1.48;;;21.90;99.90;;;;;;5035409;28;20075;-78
2022/09/12 12:08:28;;;;;;;1.92;1.50;;;21.70;99.90;;;;;;5015553;28;20037;-78
2022/09/12 12:11:00;;;;;;;4.80;1.50;;;21.80;99.90;;;;;;5021393;28;20052;-78
2022/09/12 12:13:45;;;;;;;2.95;1.60;;;21.90;99.90;;;;;;5000455;28;20116;-77
2022/09/12 12:16:34;;;;;;;2.20;1.60;;;22.00;99.90;;;;;;5031196;28;20053;-79
2022/09/12 12:19:02;;;;;;;4.43;1.85;;;22.30;99.90;;;;;;5010562;28;20048;-77
2022/09/12 12:21:30;;;;;;;2.72;1.58;;;22.30;99.50;;;;;;5032446;28;20271;-78
2022/09/12 12:24:08;;;;;;;2.58;1.45;;;22.50;99.90;;;;;;5031908;28;20044;-77
2022/09/12 12:26:59;;;;;;;2.30;1.35;;;22.70;99.70;;;;;;5029204;28;20030;-76
2022/09/12 12:29:35;;;;;;;3.35;1.70;;;23.10;99.10;;;;;;5013267;28;20143;-77
2022/09/12 12:32:01;;;;;;;2.42;1.70;;;23.10;99.40;;;;;;5016370;28;20029;-77
2022/09/12 12:34:34;;;;;;;2.85;1.90;;;23.00;99.00;;;;;;5011330;28;20401;-77
2022/09/12 12:37:18;;;;;;;2.42;1.92;;;22.80;99.10;;;;;;5000107;28;20452;-77
2022/09/12 12:39:46;;;;;;;3.13;1.70;;;22.70;99.10;;;;;;5030874;28;20072;-77
2022/09/12 12:42:31;;;;;;;2.08;1.50;;;22.60;99.50;;;;;;5000744;28;20033;-77
2022/09/12 12:44:57;;;;;;;1.95;1.60;;;22.50;98.60;;;;;;5031134;28;20052;-79
2022/09/12 12:47:32;;;;;;;2.42;1.67;;;22.50;99.20;;;;;;5032541;28;20041;-78
2022/09/12 12:50:06;;;;;;;2.33;1.33;;;22.30;99.20;;;;;;5009638;28;20099;-77
2022/09/12 12:52:47;;;;;;;3.30;1.60;;;22.40;99.30;;;;;;5032238;28;20030;-77
2022/09/12 12:55:21;;;;;;;1.92;1.55;;;22.30;98.70;;;;;;5032959;28;20037;-78
2022/09/12 12:57:52;;;;;;;2.28;1.70;;;22.10;99.10;;;;;;5002301;28;20144;-78
2022/09/12 13:00:28;;;;;;;2.45;1.40;;;22.10;99.50;;;;;;5019356;28;20515;-77
2022/09/12 13:03:00;;;;;;;1.50;1.20;;;22.10;99.80;;;;;;5036497;28;20104;-78
2022/09/12 13:05:29;;;;;;;3.15;2.00;;;22.10;99.90;;;;;;5017036;28;20029;-78
2022/09/12 13:08:17;;;;;;;2.83;1.85;;;21.90;99.30;;;;;;5035276;28;20030;-77
2022/09/12 13:10:52;;;;;;;1.92;1.60;;;21.80;99.70;;;;;;5038966;28;20060;-79
2022/09/12 13:13:30;;;;;;;2.58;1.60;;;21.80;99.90;;;;;;5019579;28;20041;-77
2022/09/12 13:15:56;;;;;;;2.17;1.50;;;21.90;99.80;;;;;;5018190;28;20091;-78